Time;durP1;ratioP1;P1;durP2;ratioP2;P2;SDS_P1;SDS_P2;PMS_P1;PMS_P2;Temp;Humidity;BMP_temperature;BMP_pressure;BME280_temperature;BME280_humidity;BME280_pressure;Samples;Min_cycle;Max_cycle;Signal;HPM_P1;HPM_P2
2022/06/23 00:02:22;;;;;;;12.77;9.10;;;20.10;99.90;;;;;;5135813;27;20991;-71
2022/06/23 00:04:50;;;;;;;20.73;10.00;;;20.10;99.90;;;;;;5135976;27;20481;-71
2022/06/23 00:07:21;;;;;;;11.30;10.00;;;19.90;99.90;;;;;;5136168;27;20484;-71
2022/06/23 00:09:49;;;;;;;15.17;11.77;;;19.80;99.90;;;;;;5136057;27;20471;-72
2022/06/23 00:12:24;;;;;;;14.77;11.90;;;19.80;99.90;;;;;;5136277;27;20542;-71
2022/06/23 00:14:54;;;;;;;17.07;12.07;;;19.70;99.90;;;;;;5135880;27;20960;-71
2022/06/23 00:17:26;;;;;;;14.20;9.27;;;19.70;99.90;;;;;;5135942;27;20447;-71
2022/06/23 00:19:54;;;;;;;11.90;8.50;;;19.80;99.90;;;;;;5135737;27;21019;-71
2022/06/23 00:22:25;;;;;;;15.60;10.50;;;19.90;99.90;;;;;;5135607;27;20487;-72
2022/06/23 00:24:56;;;;;;;13.10;10.80;;;19.90;99.90;;;;;;5134892;27;20484;-71
2022/06/23 00:27:27;;;;;;;15.33;11.10;;;20.00;99.90;;;;;;5135992;27;20511;-72
2022/06/23 00:29:57;;;;;;;11.57;9.80;;;20.00;99.90;;;;;;5135723;27;20807;-72
2022/06/23 00:32:26;;;;;;;13.43;11.27;;;20.10;99.90;;;;;;5135626;27;20864;-72
2022/06/23 00:34:58;;;;;;;15.20;13.40;;;20.10;99.90;;;;;;5135393;27;20498;-72
2022/06/23 00:37:25;;;;;;;15.40;12.87;;;20.10;99.90;;;;;;5135350;27;20492;-72
2022/06/23 00:39:54;;;;;;;14.80;9.87;;;20.10;99.90;;;;;;5135503;27;20480;-72
2022/06/23 00:42:23;;;;;;;13.00;11.10;;;20.10;99.90;;;;;;5135391;27;20568;-72
2022/06/23 00:44:55;;;;;;;15.77;12.20;;;20.10;99.90;;;;;;5135535;27;20509;-72
2022/06/23 00:47:28;;;;;;;12.43;9.93;;;20.20;99.90;;;;;;5135498;27;20479;-72
2022/06/23 00:50:01;;;;;;;10.90;9.70;;;20.20;99.90;;;;;;5134913;27;20460;-72
2022/06/23 00:52:36;;;;;;;11.07;9.97;;;20.20;99.90;;;;;;5135229;27;20476;-72
2022/06/23 00:55:10;;;;;;;9.40;8.40;;;20.20;99.90;;;;;;5135240;27;20475;-71
2022/06/23 00:57:42;;;;;;;11.10;8.67;;;20.30;99.90;;;;;;5135148;27;20476;-70
2022/06/23 01:00:17;;;;;;;12.20;8.40;;;20.30;99.90;;;;;;5134869;27;20488;-70
2022/06/23 01:02:56;;;;;;;9.70;8.63;;;20.20;99.90;;;;;;5135032;27;20568;-71
2022/06/23 01:05:28;;;;;;;10.47;8.23;;;20.20;99.90;;;;;;5135388;27;20467;-70
2022/06/23 01:08:02;;;;;;;9.63;8.23;;;20.30;99.90;;;;;;5135219;27;20440;-70
2022/06/23 01:10:36;;;;;;;10.73;8.40;;;20.20;99.90;;;;;;5135752;27;20847;-71
2022/06/23 01:13:11;;;;;;;11.63;9.10;;;20.10;99.90;;;;;;5134949;27;20463;-73
2022/06/23 01:15:42;;;;;;;8.53;7.60;;;20.00;99.90;;;;;;5135107;27;20479;-72
2022/06/23 01:18:18;;;;;;;9.40;7.60;;;20.00;99.90;;;;;;5135433;27;20519;-71
2022/06/23 01:20:52;;;;;;;10.70;7.17;;;20.00;99.90;;;;;;5134784;27;20475;-71
2022/06/23 01:23:43;;;;;;;9.93;7.80;;;20.00;99.90;;;;;;5134598;27;20487;-70
2022/06/23 01:26:33;;;;;;;11.37;7.33;;;20.00;99.90;;;;;;5135020;27;20535;-71
2022/06/23 01:29:08;;;;;;;10.97;7.40;;;20.00;99.90;;;;;;5134813;27;20479;-72
2022/06/23 01:31:43;;;;;;;9.30;7.33;;;20.00;99.90;;;;;;5134411;27;20548;-71
2022/06/23 01:34:20;;;;;;;10.17;7.67;;;19.90;99.90;;;;;;5134690;27;20458;-71
2022/06/23 01:36:50;;;;;;;10.50;7.70;;;19.90;99.90;;;;;;5134045;27;20445;-70
2022/06/23 01:39:25;;;;;;;9.87;7.53;;;19.80;99.90;;;;;;5134623;27;20479;-71
2022/06/23 01:41:57;;;;;;;11.17;7.23;;;19.80;99.90;;;;;;5134705;27;20490;-70
2022/06/23 01:44:38;;;;;;;9.90;7.30;;;19.90;99.90;;;;;;5134764;27;20442;-71
2022/06/23 01:47:16;;;;;;;8.53;6.90;;;19.90;99.90;;;;;;5134474;27;20483;-70
2022/06/23 01:49:46;;;;;;;9.77;7.27;;;19.90;99.90;;;;;;5134368;27;20454;-71
2022/06/23 01:52:17;;;;;;;11.97;7.00;;;20.00;99.90;;;;;;5134742;27;20466;-71
2022/06/23 01:54:45;;;;;;;9.10;7.07;;;19.80;99.90;;;;;;5134226;27;20436;-71
2022/06/23 01:57:21;;;;;;;10.87;7.30;;;19.80;99.90;;;;;;5134638;27;20792;-70
2022/06/23 01:59:58;;;;;;;12.90;7.20;;;19.80;99.90;;;;;;5134670;27;20942;-71
2022/06/23 02:02:35;;;;;;;13.03;6.80;;;19.80;99.90;;;;;;5134339;27;20483;-71
2022/06/23 02:05:11;;;;;;;7.60;6.40;;;19.70;99.90;;;;;;5134385;27;20439;-72
2022/06/23 02:07:56;;;;;;;10.67;6.63;;;19.60;99.90;;;;;;5134242;27;20448;-70
2022/06/23 02:10:32;;;;;;;8.67;6.10;;;19.70;99.90;;;;;;5134182;27;20835;-70
2022/06/23 02:13:07;;;;;;;12.00;6.73;;;19.70;99.90;;;;;;5133640;27;20498;-70
2022/06/23 02:15:41;;;;;;;8.70;6.70;;;19.70;99.90;;;;;;5133596;27;20419;-70
2022/06/23 02:18:16;;;;;;;12.87;7.17;;;19.70;99.90;;;;;;5134292;27;20865;-70
2022/06/23 02:20:52;;;;;;;9.33;7.60;;;19.80;99.90;;;;;;5135217;27;20475;-70
2022/06/23 02:23:25;;;;;;;11.20;7.03;;;19.70;99.90;;;;;;5134950;27;20562;-70
2022/06/23 02:25:58;;;;;;;8.67;6.63;;;19.80;99.90;;;;;;5135008;27;20485;-70
2022/06/23 02:28:37;;;;;;;10.27;7.20;;;19.80;99.90;;;;;;5135183;27;20858;-70
2022/06/23 02:31:15;;;;;;;12.23;7.27;;;19.80;99.90;;;;;;5135308;27;20488;-70
2022/06/23 02:33:50;;;;;;;8.33;7.03;;;19.80;99.90;;;;;;5134820;27;20459;-70
2022/06/23 02:36:30;;;;;;;8.87;6.77;;;19.80;99.90;;;;;;5135135;27;20447;-70
2022/06/23 02:39:00;;;;;;;9.93;6.97;;;19.80;99.90;;;;;;5134880;27;20474;-70
2022/06/23 02:41:32;;;;;;;10.17;7.20;;;19.80;99.90;;;;;;5134648;27;20471;-70
2022/06/23 02:44:18;;;;;;;9.47;6.73;;;19.70;99.90;;;;;;5134524;27;20473;-70
2022/06/23 02:47:02;;;;;;;10.77;7.50;;;19.80;99.90;;;;;;5134361;27;20918;-70
2022/06/23 02:50:04;;;;;;;9.50;6.77;;;19.70;99.90;;;;;;5134735;27;20450;-70
2022/06/23 02:52:52;;;;;;;12.00;7.20;;;19.70;99.90;;;;;;5097465;27;21010;-70
2022/06/23 02:55:46;;;;;;;12.37;6.57;;;19.70;99.90;;;;;;5134665;27;20496;-70
2022/06/23 02:58:18;;;;;;;7.70;6.57;;;19.70;99.90;;;;;;5134600;27;20477;-70
2022/06/23 03:00:50;;;;;;;12.97;6.43;;;19.70;99.90;;;;;;5134516;27;20482;-70
2022/06/23 03:03:23;;;;;;;8.57;6.50;;;19.60;99.90;;;;;;5134218;27;20532;-70
2022/06/23 03:05:55;;;;;;;13.23;7.20;;;19.60;99.90;;;;;;5134576;27;20477;-70
2022/06/23 03:08:31;;;;;;;12.40;6.90;;;19.60;99.90;;;;;;5134473;27;20537;-70
2022/06/23 03:11:02;;;;;;;6.60;6.00;;;19.60;99.90;;;;;;5134490;27;20838;-70
2022/06/23 03:13:40;;;;;;;10.13;7.77;;;19.60;99.90;;;;;;5133954;27;20540;-69
2022/06/23 03:16:15;;;;;;;9.50;7.30;;;19.50;99.90;;;;;;5134503;27;20523;-70
2022/06/23 03:18:54;;;;;;;14.93;7.40;;;19.50;99.90;;;;;;5134506;27;21011;-70
2022/06/23 03:21:25;;;;;;;11.10;6.93;;;19.50;99.90;;;;;;5134436;27;20526;-70
2022/06/23 03:23:59;;;;;;;10.87;7.20;;;19.50;99.90;;;;;;5134324;27;20502;-70
2022/06/23 03:26:34;;;;;;;8.10;6.60;;;19.50;99.90;;;;;;5135152;27;20435;-70
2022/06/23 03:29:10;;;;;;;11.07;6.87;;;19.50;99.90;;;;;;5134397;27;20513;-70
2022/06/23 03:31:43;;;;;;;9.20;7.77;;;19.50;99.90;;;;;;5134304;27;20462;-70
2022/06/23 03:34:19;;;;;;;9.10;7.10;;;19.60;99.90;;;;;;5134131;27;20448;-70
2022/06/23 03:36:51;;;;;;;9.00;6.90;;;19.60;99.90;;;;;;5134775;27;20473;-70
2022/06/23 03:42:15;;;;;;;15.13;7.13;;;19.60;99.90;;;;;;5133895;27;20508;-71
2022/06/23 03:44:50;;;;;;;9.67;7.33;;;19.50;99.90;;;;;;5134262;27;20526;-70
2022/06/23 03:47:24;;;;;;;12.83;7.73;;;19.50;99.90;;;;;;5134244;27;20529;-70
2022/06/23 03:49:55;;;;;;;11.43;7.97;;;19.50;99.90;;;;;;5134196;27;20802;-70
2022/06/23 03:52:32;;;;;;;14.60;7.80;;;19.40;99.90;;;;;;5134156;27;20813;-70
2022/06/23 03:55:06;;;;;;;13.17;8.87;;;19.20;99.90;;;;;;5134142;27;20440;-70
2022/06/23 03:57:37;;;;;;;11.63;8.40;;;19.30;99.90;;;;;;5134110;27;20939;-70
2022/06/23 04:00:19;;;;;;;11.50;8.27;;;19.30;99.90;;;;;;5136141;27;20523;-70
2022/06/23 04:02:50;;;;;;;10.80;8.60;;;19.30;99.90;;;;;;5137670;27;20476;-70
2022/06/23 04:05:24;;;;;;;13.53;9.23;;;19.30;99.90;;;;;;5137815;27;20538;-70
2022/06/23 04:07:53;;;;;;;13.07;8.80;;;19.20;99.90;;;;;;5137497;27;20450;-70
2022/06/23 04:10:25;;;;;;;13.47;8.73;;;19.30;99.90;;;;;;5137475;27;20930;-70
2022/06/23 04:12:57;;;;;;;12.47;8.70;;;19.30;99.90;;;;;;5137237;27;20547;-70
2022/06/23 04:15:29;;;;;;;11.50;9.20;;;19.50;99.90;;;;;;5137679;27;20526;-70
2022/06/23 04:18:02;;;;;;;16.20;8.60;;;19.50;99.90;;;;;;5137630;27;20523;-70
2022/06/23 04:20:35;;;;;;;11.43;8.67;;;19.60;99.90;;;;;;5137502;27;20441;-70
2022/06/23 04:23:05;;;;;;;12.07;10.00;;;19.60;99.90;;;;;;5137225;27;20480;-70
2022/06/23 04:25:42;;;;;;;10.83;9.33;;;19.70;99.90;;;;;;5137459;27;20497;-70
2022/06/23 04:28:20;;;;;;;11.70;8.93;;;19.70;99.90;;;;;;5137345;27;21009;-70
2022/06/23 04:30:48;;;;;;;10.47;8.57;;;19.60;99.90;;;;;;5137313;27;20523;-70
2022/06/23 04:33:19;;;;;;;12.20;9.37;;;19.60;99.90;;;;;;5137219;27;21021;-70
2022/06/23 04:35:51;;;;;;;9.47;8.57;;;19.60;99.90;;;;;;5137288;27;20886;-70
2022/06/23 04:38:23;;;;;;;10.97;8.83;;;19.70;99.90;;;;;;5137134;27;20526;-70
2022/06/23 04:40:55;;;;;;;11.30;8.83;;;19.70;99.90;;;;;;5137173;27;20860;-70
2022/06/23 04:43:32;;;;;;;11.40;9.03;;;19.70;99.90;;;;;;5136513;27;20571;-71
2022/06/23 04:46:03;;;;;;;15.20;10.00;;;19.70;99.90;;;;;;5136896;27;20948;-70
2022/06/23 04:48:34;;;;;;;9.73;8.10;;;19.80;99.90;;;;;;5136856;27;20528;-70
2022/06/23 04:51:07;;;;;;;10.67;9.50;;;19.80;99.90;;;;;;5137043;27;21001;-70
2022/06/23 04:53:49;;;;;;;11.73;9.77;;;19.70;99.90;;;;;;5136426;27;20554;-71
2022/06/23 04:56:25;;;;;;;12.90;9.70;;;19.70;99.90;;;;;;5136742;27;20526;-70
2022/06/23 04:58:56;;;;;;;13.00;9.67;;;19.60;99.90;;;;;;5136856;27;20446;-70
2022/06/23 05:01:27;;;;;;;10.00;9.00;;;19.60;99.90;;;;;;5136678;27;20526;-70
2022/06/23 05:03:58;;;;;;;15.00;9.70;;;19.50;99.90;;;;;;5136593;27;20465;-70
2022/06/23 05:06:37;;;;;;;15.10;10.43;;;19.60;99.90;;;;;;5136479;27;20459;-70
2022/06/23 05:09:08;;;;;;;12.73;11.43;;;19.70;99.90;;;;;;5136739;27;20524;-70
2022/06/23 05:11:41;;;;;;;13.80;9.43;;;19.70;99.90;;;;;;5136228;27;21030;-70
2022/06/23 05:14:17;;;;;;;11.90;9.57;;;19.70;99.90;;;;;;5136389;27;20515;-70
2022/06/23 05:16:48;;;;;;;14.80;12.30;;;19.60;99.90;;;;;;5136441;27;20527;-70
2022/06/23 05:19:21;;;;;;;18.47;13.20;;;19.50;99.90;;;;;;5136874;27;20527;-70
2022/06/23 05:21:53;;;;;;;16.83;11.80;;;19.40;99.90;;;;;;5136238;27;20551;-70
2022/06/23 05:24:24;;;;;;;12.67;11.40;;;19.40;99.90;;;;;;5136260;27;20529;-70
2022/06/23 05:26:55;;;;;;;16.00;13.03;;;19.50;99.90;;;;;;5136495;27;20818;-70
2022/06/23 05:29:25;;;;;;;13.47;12.03;;;19.60;99.90;;;;;;5137222;27;20822;-70
2022/06/23 05:31:58;;;;;;;13.83;10.87;;;19.70;99.90;;;;;;5136249;27;20555;-70
2022/06/23 05:34:28;;;;;;;16.30;11.77;;;19.80;99.90;;;;;;5135981;27;20907;-69
2022/06/23 05:37:04;;;;;;;12.93;11.40;;;19.80;99.90;;;;;;5136462;27;20856;-70
2022/06/23 05:39:38;;;;;;;12.67;10.70;;;19.90;99.90;;;;;;5136071;27;20439;-71
2022/06/23 05:42:13;;;;;;;15.83;10.90;;;20.00;99.90;;;;;;5136046;27;20543;-70
2022/06/23 05:44:48;;;;;;;15.10;10.70;;;20.00;99.90;;;;;;5135982;27;20519;-70
2022/06/23 05:47:17;;;;;;;14.50;10.57;;;20.00;99.90;;;;;;5136005;27;20433;-70
2022/06/23 05:49:49;;;;;;;12.73;10.87;;;20.10;99.90;;;;;;5135927;27;20437;-70
2022/06/23 05:52:22;;;;;;;12.70;9.63;;;20.10;99.90;;;;;;5135636;27;20457;-71
2022/06/23 05:54:54;;;;;;;14.07;11.30;;;20.20;99.90;;;;;;5136061;27;20441;-70
2022/06/23 05:57:26;;;;;;;12.70;10.90;;;20.10;99.90;;;;;;5135909;27;20536;-70
2022/06/23 06:00:03;;;;;;;12.03;10.80;;;20.20;99.90;;;;;;5135587;27;21026;-70
2022/06/23 06:02:38;;;;;;;15.50;11.03;;;20.20;99.90;;;;;;5135120;27;20818;-70
2022/06/23 06:05:05;;;;;;;19.10;13.57;;;20.20;99.90;;;;;;5135635;27;20528;-70
2022/06/23 06:07:39;;;;;;;16.17;13.97;;;20.10;99.90;;;;;;5135440;27;20528;-70
2022/06/23 06:10:14;;;;;;;16.80;14.57;;;20.00;99.90;;;;;;5135363;27;20520;-69
2022/06/23 06:12:42;;;;;;;16.67;14.80;;;20.00;99.90;;;;;;5134977;27;20547;-70
2022/06/23 06:15:17;;;;;;;17.70;15.20;;;20.00;99.90;;;;;;5135276;27;20445;-69
2022/06/23 06:17:45;;;;;;;16.67;14.10;;;20.00;99.90;;;;;;5135323;27;20523;-70
2022/06/23 06:20:14;;;;;;;18.30;14.90;;;20.00;99.90;;;;;;5135233;27;20485;-69
2022/06/23 06:22:51;;;;;;;16.03;14.37;;;20.00;99.90;;;;;;5134023;27;20570;-69
2022/06/23 06:25:24;;;;;;;19.30;14.70;;;20.10;99.90;;;;;;5135079;27;20943;-70
2022/06/23 06:27:51;;;;;;;16.60;15.00;;;20.10;99.90;;;;;;5135176;27;20441;-70
2022/06/23 06:30:24;;;;;;;19.70;14.60;;;20.20;99.90;;;;;;5135076;27;20530;-69
2022/06/23 06:32:52;;;;;;;17.50;14.17;;;20.20;99.90;;;;;;5134896;27;20457;-70
2022/06/23 06:35:30;;;;;;;17.90;12.97;;;20.20;99.90;;;;;;5134949;27;20454;-70
2022/06/23 06:38:02;;;;;;;14.70;11.70;;;20.30;99.90;;;;;;5134949;27;20521;-70
2022/06/23 06:40:29;;;;;;;13.43;10.90;;;20.40;99.90;;;;;;5134960;27;20532;-69
2022/06/23 06:43:02;;;;;;;14.80;10.93;;;20.60;99.90;;;;;;5134652;27;20588;-70
2022/06/23 06:45:35;;;;;;;13.07;8.87;;;20.80;99.90;;;;;;5134601;27;20521;-70
2022/06/23 06:48:05;;;;;;;10.83;8.43;;;21.00;99.90;;;;;;5134879;27;20438;-70
2022/06/23 06:50:36;;;;;;;10.93;7.63;;;21.20;99.90;;;;;;5134738;27;20442;-70
2022/06/23 06:53:08;;;;;;;9.37;7.07;;;21.30;99.90;;;;;;5134207;27;20545;-70
2022/06/23 06:55:42;;;;;;;8.17;7.30;;;21.40;99.90;;;;;;5134777;27;20525;-69
2022/06/23 06:58:15;;;;;;;11.70;7.30;;;21.60;99.90;;;;;;5134743;27;20443;-70
2022/06/23 07:00:46;;;;;;;11.50;6.93;;;21.90;99.90;;;;;;5134708;27;20538;-70
2022/06/23 07:03:17;;;;;;;9.13;7.13;;;22.30;99.90;;;;;;5134144;27;20998;-70
2022/06/23 07:05:49;;;;;;;12.17;6.77;;;22.60;99.90;;;;;;5134666;27;20452;-70
2022/06/23 07:08:24;;;;;;;11.50;6.50;;;22.80;99.90;;;;;;5134467;27;20447;-70
2022/06/23 07:10:57;;;;;;;9.97;5.97;;;23.00;99.90;;;;;;5134559;27;20864;-70
2022/06/23 07:13:29;;;;;;;7.23;5.80;;;23.40;99.90;;;;;;5134116;27;20544;-70
2022/06/23 07:16:01;;;;;;;5.90;5.30;;;23.60;99.90;;;;;;5134553;27;20528;-70
2022/06/23 07:18:32;;;;;;;6.73;6.03;;;23.70;99.90;;;;;;5134573;27;20573;-70
2022/06/23 07:21:04;;;;;;;9.53;5.90;;;23.60;99.90;;;;;;5134529;27;20516;-70
2022/06/23 07:23:41;;;;;;;6.57;5.87;;;23.70;99.90;;;;;;5134137;27;20572;-70
2022/06/23 07:26:41;;;;;;;10.63;6.60;;;23.60;99.90;;;;;;5134255;27;20527;-69
2022/06/23 07:29:19;;;;;;;6.30;5.70;;;23.40;99.90;;;;;;5071176;28;20536;-69
2022/06/23 07:32:03;;;;;;;9.17;6.97;;;23.30;99.90;;;;;;5125633;27;20833;-70
2022/06/23 07:34:34;;;;;;;7.33;6.50;;;23.20;99.90;;;;;;5145423;27;20937;-70
2022/06/23 07:37:17;;;;;;;8.17;6.97;;;23.00;99.90;;;;;;5137322;27;20525;-69
2022/06/23 07:39:48;;;;;;;8.03;5.40;;;23.00;99.90;;;;;;5137413;27;20447;-70
2022/06/23 07:42:23;;;;;;;6.70;5.40;;;22.90;99.90;;;;;;5137109;27;20540;-71
2022/06/23 07:44:56;;;;;;;7.43;5.93;;;22.90;99.90;;;;;;5137296;27;20566;-70
2022/06/23 07:47:23;;;;;;;7.67;6.33;;;22.90;99.90;;;;;;5136930;27;20532;-70
2022/06/23 07:49:50;;;;;;;9.40;6.10;;;22.70;99.90;;;;;;5137224;27;20533;-69
2022/06/23 07:52:20;;;;;;;10.13;7.90;;;22.50;99.90;;;;;;5136773;27;20557;-71
2022/06/23 07:54:49;;;;;;;8.43;6.40;;;22.60;99.90;;;;;;5136887;27;20542;-71
2022/06/23 07:57:17;;;;;;;7.53;5.70;;;22.90;99.90;;;;;;5137055;27;20442;-70
2022/06/23 07:59:49;;;;;;;6.33;5.50;;;23.00;99.90;;;;;;5137424;27;20535;-71
2022/06/23 08:02:21;;;;;;;6.30;5.40;;;23.20;99.90;;;;;;5136804;27;20547;-71
2022/06/23 08:04:57;;;;;;;7.97;5.20;;;23.40;99.90;;;;;;5137865;27;20477;-70
2022/06/23 08:07:26;;;;;;;9.67;5.90;;;24.00;99.90;;;;;;5137805;27;20445;-71
2022/06/23 08:09:58;;;;;;;7.50;5.33;;;24.60;99.90;;;;;;5138029;27;20479;-70
2022/06/23 08:18:11;;;;;;;9.00;6.80;;;24.90;99.90;;;;;;5137912;27;20918;-71
2022/06/23 08:20:43;;;;;;;7.67;6.43;;;25.10;99.90;;;;;;5137408;27;20438;-71
2022/06/23 08:23:13;;;;;;;6.70;5.93;;;25.30;99.90;;;;;;5137387;27;20458;-71
2022/06/23 08:25:42;;;;;;;9.40;5.63;;;25.60;99.90;;;;;;5137536;27;20920;-71
2022/06/23 08:28:09;;;;;;;8.30;5.30;;;25.90;99.90;;;;;;5137371;27;20812;-71
2022/06/23 08:30:39;;;;;;;8.67;5.37;;;26.10;99.90;;;;;;5137145;27;20529;-71
2022/06/23 08:33:07;;;;;;;7.70;5.67;;;26.50;99.90;;;;;;5138567;27;20812;-71
2022/06/23 08:35:39;;;;;;;6.53;5.40;;;26.70;99.90;;;;;;5138016;27;20996;-71
2022/06/23 08:38:09;;;;;;;5.37;4.87;;;26.70;99.90;;;;;;5138185;27;20521;-72
2022/06/23 08:40:49;;;;;;;5.97;4.97;;;26.60;99.90;;;;;;5138157;27;20796;-72
2022/06/23 08:43:22;;;;;;;8.40;5.37;;;26.60;99.90;;;;;;5137797;27;20466;-72
2022/06/23 08:45:56;;;;;;;5.53;4.93;;;26.60;99.90;;;;;;5137449;27;20521;-72
2022/06/23 08:48:29;;;;;;;6.70;5.07;;;26.70;99.90;;;;;;5137727;27;20533;-72
2022/06/23 08:51:02;;;;;;;8.50;5.10;;;26.70;99.90;;;;;;5137873;27;20448;-72
2022/06/23 08:53:36;;;;;;;6.00;5.50;;;26.70;99.90;;;;;;5137339;27;20537;-72
2022/06/23 08:56:10;;;;;;;5.03;4.53;;;26.90;99.90;;;;;;5137828;27;20524;-72
2022/06/23 08:58:41;;;;;;;8.43;5.17;;;27.80;99.90;;;;;;5137973;27;20438;-72
2022/06/23 09:01:14;;;;;;;7.17;5.33;;;28.40;99.90;;;;;;5137798;27;20933;-72
2022/06/23 09:03:52;;;;;;;5.80;4.30;;;29.20;99.90;;;;;;5137539;27;20835;-73
2022/06/23 09:06:31;;;;;;;5.30;4.30;;;29.60;96.50;;;;;;5137377;27;20929;-72
2022/06/23 09:09:07;;;;;;;4.70;4.03;;;30.40;96.20;;;;;;5137342;27;20528;-72
2022/06/23 09:11:48;;;;;;;4.97;4.57;;;31.50;94.00;;;;;;5137068;27;20521;-72
2022/06/23 09:14:42;;;;;;;6.70;3.70;;;31.90;89.50;;;;;;5137125;27;20509;-73
2022/06/23 09:17:36;;;;;;;7.43;4.03;;;32.60;85.20;;;;;;5132288;27;20443;-70
2022/06/23 09:20:18;;;;;;;5.73;3.97;;;35.10;78.70;;;;;;5137224;27;20445;-71
2022/06/23 09:23:12;;;;;;;5.00;4.07;;;35.60;71.30;;;;;;5137079;27;20553;-70
2022/06/23 09:25:48;;;;;;;4.87;4.10;;;35.30;64.20;;;;;;5137185;27;20470;-71
2022/06/23 09:28:20;;;;;;;4.70;3.40;;;34.90;70.80;;;;;;5137551;27;20524;-70
2022/06/23 09:30:56;;;;;;;3.77;3.47;;;34.90;61.30;;;;;;5137432;27;20530;-70
2022/06/23 09:33:31;;;;;;;4.90;4.43;;;35.00;61.00;;;;;;5137129;27;20460;-70
2022/06/23 09:36:29;;;;;;;4.60;3.90;;;35.20;60.80;;;;;;5137367;27;20437;-70
2022/06/23 09:39:25;;;;;;;9.60;4.20;;;35.10;60.20;;;;;;5137063;27;20856;-70
2022/06/23 09:42:23;;;;;;;6.67;4.30;;;35.10;63.90;;;;;;5131326;27;20537;-70
2022/06/23 09:45:08;;;;;;;4.00;3.53;;;37.30;60.20;;;;;;5136387;27;20470;-71
2022/06/23 09:47:50;;;;;;;9.33;8.43;;;38.90;53.90;;;;;;5137198;27;20437;-71
2022/06/23 09:50:38;;;;;;;5.77;5.30;;;39.10;50.90;;;;;;5137007;27;20537;-71
2022/06/23 09:53:27;;;;;;;6.60;5.93;;;38.90;55.00;;;;;;5105743;27;20556;-71
2022/06/23 09:56:18;;;;;;;6.13;4.60;;;40.00;50.50;;;;;;5136694;27;20445;-71
2022/06/23 09:59:05;;;;;;;4.40;3.47;;;40.60;48.20;;;;;;5136261;27;20525;-71
2022/06/23 10:01:42;;;;;;;3.77;3.47;;;41.00;45.00;;;;;;5136869;27;20449;-71
2022/06/23 10:04:19;;;;;;;4.47;3.50;;;40.60;47.40;;;;;;5136710;27;20557;-72
2022/06/23 10:07:07;;;;;;;5.03;4.63;;;40.60;46.10;;;;;;5136700;27;20434;-71
2022/06/23 10:09:49;;;;;;;5.43;4.40;;;38.80;47.10;;;;;;5136419;27;20871;-71
2022/06/23 10:12:34;;;;;;;5.07;3.80;;;37.80;49.40;;;;;;5136066;27;20557;-72
2022/06/23 10:15:24;;;;;;;4.50;3.83;;;38.70;51.60;;;;;;5136318;27;20509;-71
2022/06/23 10:18:24;;;;;;;4.93;4.30;;;39.20;51.00;;;;;;5133884;27;21016;-71
2022/06/23 10:21:05;;;;;;;18.97;17.37;;;40.10;47.70;;;;;;5136197;27;20950;-71
2022/06/23 10:24:05;;;;;;;5.30;4.20;;;40.10;48.00;;;;;;5135819;27;20860;-71
2022/06/23 10:26:45;;;;;;;4.77;4.00;;;38.90;48.70;;;;;;5136254;27;20523;-71
2022/06/23 10:29:34;;;;;;;5.50;4.03;;;37.50;52.50;;;;;;5135993;27;20470;-70
2022/06/23 10:32:24;;;;;;;4.53;4.10;;;36.40;54.80;;;;;;5136141;27;20562;-71
2022/06/23 10:35:12;;;;;;;7.13;4.40;;;35.90;56.80;;;;;;5136166;27;21057;-70
2022/06/23 10:37:59;;;;;;;7.10;5.17;;;35.10;53.90;;;;;;5136037;27;20968;-70
2022/06/23 10:40:46;;;;;;;6.57;4.00;;;34.40;57.40;;;;;;5136279;27;20525;-72
2022/06/23 10:43:38;;;;;;;5.97;4.73;;;33.80;59.00;;;;;;5135684;27;20552;-72
2022/06/23 10:46:13;;;;;;;3.83;3.53;;;33.10;58.00;;;;;;5132413;27;20446;-72
2022/06/23 10:49:07;;;;;;;5.90;4.07;;;32.30;58.20;;;;;;5134890;27;20441;-72
2022/06/23 10:51:53;;;;;;;3.57;3.27;;;31.60;60.30;;;;;;5129542;27;20521;-72
2022/06/23 10:54:42;;;;;;;6.37;4.10;;;31.40;64.50;;;;;;5134830;27;21022;-72
2022/06/23 10:57:24;;;;;;;3.87;3.10;;;31.30;61.50;;;;;;5134475;27;20525;-72
2022/06/23 11:00:06;;;;;;;5.63;3.90;;;31.10;66.20;;;;;;5134755;27;20499;-71
2022/06/23 11:03:03;;;;;;;6.50;3.87;;;31.00;65.30;;;;;;5134476;27;20543;-72
2022/06/23 11:06:02;;;;;;;5.70;3.53;;;30.60;62.70;;;;;;5134611;27;20549;-72
2022/06/23 11:08:50;;;;;;;4.43;4.03;;;30.50;72.00;;;;;;5136831;27;21022;-71
2022/06/23 11:11:31;;;;;;;8.50;3.63;;;30.50;68.20;;;;;;5141494;27;20470;-72
2022/06/23 11:14:05;;;;;;;5.70;4.03;;;30.40;66.90;;;;;;5141363;27;20607;-72
2022/06/23 11:16:42;;;;;;;3.87;3.33;;;30.20;63.50;;;;;;5141470;27;20524;-71
2022/06/23 11:19:28;;;;;;;5.77;3.43;;;30.20;65.20;;;;;;5141378;27;21004;-72
2022/06/23 11:22:08;;;;;;;4.77;3.30;;;30.30;63.80;;;;;;5141576;27;20917;-72
2022/06/23 11:24:50;;;;;;;4.93;3.57;;;30.40;65.60;;;;;;5141317;27;20565;-72
2022/06/23 11:27:27;;;;;;;7.23;3.20;;;30.50;63.80;;;;;;5141373;27;20433;-72
2022/06/23 11:30:14;;;;;;;9.43;3.60;;;30.60;64.60;;;;;;5141194;27;20986;-72
2022/06/23 11:32:54;;;;;;;7.10;3.10;;;30.60;71.00;;;;;;5140835;27;20553;-72
2022/06/23 11:35:41;;;;;;;6.93;3.50;;;30.70;62.00;;;;;;5141280;27;20528;-72
2022/06/23 11:38:46;;;;;;;5.83;3.57;;;30.60;61.00;;;;;;5141303;27;20526;-72
2022/06/23 11:41:31;;;;;;;6.03;2.67;;;30.50;60.40;;;;;;5141115;27;20448;-72
2022/06/23 11:44:14;;;;;;;5.00;3.30;;;30.40;60.00;;;;;;5141048;27;20517;-72
2022/06/23 11:46:47;;;;;;;4.43;3.57;;;30.30;60.30;;;;;;5141201;27;20524;-72
2022/06/23 11:49:33;;;;;;;4.53;3.27;;;30.20;61.10;;;;;;5141220;27;20852;-72
2022/06/23 11:52:21;;;;;;;5.13;3.70;;;30.20;61.20;;;;;;5140951;27;20549;-72
2022/06/23 11:55:11;;;;;;;4.90;3.13;;;30.50;68.50;;;;;;5141141;27;20430;-72
2022/06/23 11:58:03;;;;;;;7.00;3.67;;;30.70;63.60;;;;;;5138247;27;20533;-72
2022/06/23 12:00:42;;;;;;;6.20;2.90;;;31.00;62.40;;;;;;5141062;27;20505;-72
2022/06/23 12:03:29;;;;;;;5.50;3.13;;;31.20;63.10;;;;;;5140787;27;20508;-72
2022/06/23 12:06:06;;;;;;;8.10;3.73;;;31.20;65.80;;;;;;5140954;27;20474;-72
2022/06/23 12:08:47;;;;;;;6.70;4.50;;;31.10;60.80;;;;;;5140855;27;20524;-72
2022/06/23 12:11:14;;;;;;;5.60;3.60;;;30.70;60.80;;;;;;5140833;27;20442;-72
2022/06/23 12:13:43;;;;;;;9.03;6.10;;;30.10;62.30;;;;;;5140646;27;20465;-72
2022/06/23 12:16:10;;;;;;;7.17;4.30;;;29.90;71.10;;;;;;5140887;27;20808;-72
2022/06/23 12:18:47;;;;;;;4.83;3.67;;;29.90;73.00;;;;;;5140856;27;20982;-72
2022/06/23 12:21:24;;;;;;;5.17;3.33;;;29.90;65.70;;;;;;5136809;27;20437;-72
2022/06/23 12:23:58;;;;;;;6.67;3.50;;;30.10;67.40;;;;;;5137453;27;20487;-72
2022/06/23 12:26:30;;;;;;;4.73;2.50;;;30.30;64.00;;;;;;5137416;27;20569;-71
2022/06/23 12:29:05;;;;;;;6.10;3.60;;;30.40;63.10;;;;;;5137637;27;20434;-72
2022/06/23 12:31:48;;;;;;;5.93;3.63;;;30.70;65.80;;;;;;5137418;27;20853;-72
2022/06/23 12:34:27;;;;;;;9.30;7.40;;;30.80;64.10;;;;;;5137251;27;20432;-72
2022/06/23 12:37:06;;;;;;;4.57;3.53;;;30.90;66.40;;;;;;5137247;27;20430;-72
2022/06/23 12:39:41;;;;;;;5.13;3.33;;;31.00;64.80;;;;;;5137521;27;20439;-72
2022/06/23 12:42:12;;;;;;;4.97;3.77;;;31.00;63.40;;;;;;5137608;27;20473;-72
2022/06/23 12:44:55;;;;;;;5.53;3.63;;;30.60;63.50;;;;;;5137673;27;20481;-72
2022/06/23 12:47:36;;;;;;;6.77;3.47;;;30.10;66.10;;;;;;5137511;27;20872;-72
2022/06/23 12:50:20;;;;;;;4.23;3.50;;;29.80;67.20;;;;;;5137582;27;20986;-72
2022/06/23 12:52:57;;;;;;;5.43;4.33;;;29.80;68.40;;;;;;5136970;27;20565;-72
2022/06/23 12:55:46;;;;;;;5.37;3.57;;;29.90;69.40;;;;;;5137798;27;20520;-72
2022/06/23 12:58:24;;;;;;;5.33;3.90;;;30.10;70.00;;;;;;5137470;27;20470;-70
2022/06/23 13:01:01;;;;;;;4.10;3.20;;;30.30;66.10;;;;;;5137338;27;20465;-72
2022/06/23 13:03:35;;;;;;;5.77;3.80;;;30.60;66.00;;;;;;5136969;27;20501;-71
2022/06/23 13:06:21;;;;;;;4.13;3.63;;;30.80;68.20;;;;;;5137257;27;20839;-71
2022/06/23 13:09:09;;;;;;;10.77;3.93;;;31.00;66.30;;;;;;5137314;27;20438;-71
2022/06/23 13:11:46;;;;;;;4.83;3.83;;;31.00;66.90;;;;;;5137114;27;20446;-71
2022/06/23 13:14:17;;;;;;;8.30;3.57;;;31.20;67.50;;;;;;5136921;27;20471;-71
2022/06/23 13:16:54;;;;;;;6.03;3.40;;;31.20;66.30;;;;;;5137677;27;20853;-71
2022/06/23 13:19:29;;;;;;;5.93;3.53;;;31.30;64.70;;;;;;5136950;27;20532;-71
2022/06/23 13:22:05;;;;;;;5.07;4.20;;;31.40;66.50;;;;;;5136890;27;20820;-72
2022/06/23 13:24:34;;;;;;;9.43;4.70;;;31.30;64.60;;;;;;5137251;27;20522;-72
2022/06/23 13:27:07;;;;;;;4.73;3.67;;;31.10;63.40;;;;;;5136781;27;20947;-71
2022/06/23 13:29:40;;;;;;;5.20;4.70;;;30.90;62.90;;;;;;5136993;27;20513;-71
2022/06/23 13:32:16;;;;;;;6.73;4.80;;;30.90;64.20;;;;;;5136667;27;20549;-72
2022/06/23 13:34:53;;;;;;;4.83;3.90;;;31.00;64.30;;;;;;5136233;27;20529;-71
2022/06/23 13:37:25;;;;;;;4.60;3.77;;;31.20;64.10;;;;;;5136263;27;20516;-71